sensor_id;sensor_type;location;lat;lon;timestamp;pressure;altitude;pressure_sealevel;temperature;humidity
12799;BME280;19250;42.646;26.980;2023-02-27T00:01:42;98642.00;;;14.29;100.00
12799;BME280;19250;42.646;26.980;2023-02-27T00:04:11;98633.97;;;14.50;100.00
12799;BME280;19250;42.646;26.980;2023-02-27T00:06:39;98638.09;;;14.46;100.00
12799;BME280;19250;42.646;26.980;2023-02-27T00:09:06;98644.69;;;14.50;100.00
12799;BME280;19250;42.646;26.980;2023-02-27T00:11:34;98632.56;;;14.54;100.00
12799;BME280;19250;42.646;26.980;2023-02-27T00:14:03;98635.63;;;14.72;100.00
12799;BME280;19250;42.646;26.980;2023-02-27T00:16:31;98639.28;;;14.43;100.00
12799;BME280;19250;42.646;26.980;2023-02-27T00:18:58;98631.28;;;14.50;100.00
12799;BME280;19250;42.646;26.980;2023-02-27T00:21:30;98630.59;;;14.62;100.00
12799;BME280;19250;42.646;26.980;2023-02-27T00:23:58;98645.84;;;14.41;100.00
12799;BME280;19250;42.646;26.980;2023-02-27T00:26:25;98643.06;;;14.49;100.00
12799;BME280;19250;42.646;26.980;2023-02-27T00:28:52;98640.94;;;14.44;100.00
12799;BME280;19250;42.646;26.980;2023-02-27T00:31:19;98643.50;;;14.52;100.00
12799;BME280;19250;42.646;26.980;2023-02-27T00:33:47;98639.09;;;14.45;100.00
12799;BME280;19250;42.646;26.980;2023-02-27T00:36:14;98636.41;;;14.45;100.00
12799;BME280;19250;42.646;26.980;2023-02-27T00:38:43;98632.03;;;14.65;100.00
12799;BME280;19250;42.646;26.980;2023-02-27T00:41:10;98649.16;;;14.22;100.00
12799;BME280;19250;42.646;26.980;2023-02-27T00:43:37;98645.28;;;14.66;100.00
12799;BME280;19250;42.646;26.980;2023-02-27T00:46:04;98640.94;;;14.65;100.00
12799;BME280;19250;42.646;26.980;2023-02-27T00:48:32;98641.25;;;14.35;100.00
12799;BME280;19250;42.646;26.980;2023-02-27T00:50:59;98645.84;;;14.41;100.00
12799;BME280;19250;42.646;26.980;2023-02-27T00:53:26;98639.78;;;14.53;100.00
12799;BME280;19250;42.646;26.980;2023-02-27T00:55:55;98636.25;;;14.74;100.00
12799;BME280;19250;42.646;26.980;2023-02-27T00:58:22;98634.06;;;14.84;100.00
12799;BME280;19250;42.646;26.980;2023-02-27T01:00:49;98635.09;;;14.83;100.00
12799;BME280;19250;42.646;26.980;2023-02-27T01:03:16;98631.25;;;14.71;100.00
12799;BME280;19250;42.646;26.980;2023-02-27T01:05:43;98623.38;;;14.91;100.00
12799;BME280;19250;42.646;26.980;2023-02-27T01:08:11;98621.97;;;14.67;100.00
12799;BME280;19250;42.646;26.980;2023-02-27T01:10:38;98618.16;;;14.55;100.00
12799;BME280;19250;42.646;26.980;2023-02-27T01:13:06;98622.75;;;14.40;100.00
12799;BME280;19250;42.646;26.980;2023-02-27T01:15:34;98608.38;;;14.47;100.00
12799;BME280;19250;42.646;26.980;2023-02-27T01:18:01;98613.31;;;14.29;100.00
12799;BME280;19250;42.646;26.980;2023-02-27T01:20:29;98598.31;;;14.13;100.00
12799;BME280;19250;42.646;26.980;2023-02-27T01:22:56;98614.53;;;13.70;100.00
12799;BME280;19250;42.646;26.980;2023-02-27T01:25:23;98613.00;;;14.17;100.00
12799;BME280;19250;42.646;26.980;2023-02-27T01:27:50;98604.22;;;14.45;100.00
12799;BME280;19250;42.646;26.980;2023-02-27T01:30:19;98618.59;;;14.58;100.00
12799;BME280;19250;42.646;26.980;2023-02-27T01:32:46;98606.94;;;14.30;100.00
12799;BME280;19250;42.646;26.980;2023-02-27T01:35:14;98613.91;;;14.25;100.00
12799;BME280;19250;42.646;26.980;2023-02-27T01:37:41;98619.47;;;14.44;100.00
12799;BME280;19250;42.646;26.980;2023-02-27T01:40:10;98613.56;;;14.13;100.00
12799;BME280;19250;42.646;26.980;2023-02-27T01:42:37;98607.66;;;14.17;100.00
12799;BME280;19250;42.646;26.980;2023-02-27T01:45:34;98605.34;;;14.14;100.00
12799;BME280;19250;42.646;26.980;2023-02-27T01:48:07;98624.03;;;14.08;100.00
12799;BME280;19250;42.646;26.980;2023-02-27T01:50:40;98624.63;;;13.53;100.00
12799;BME280;19250;42.646;26.980;2023-02-27T01:53:08;98633.66;;;13.52;100.00
12799;BME280;19250;42.646;26.980;2023-02-27T01:55:37;98644.22;;;13.53;100.00
12799;BME280;19250;42.646;26.980;2023-02-27T01:58:07;98657.69;;;13.60;100.00
12799;BME280;19250;42.646;26.980;2023-02-27T02:00:37;98669.25;;;13.60;100.00
12799;BME280;19250;42.646;26.980;2023-02-27T02:03:11;98667.75;;;13.58;100.00
12799;BME280;19250;42.646;26.980;2023-02-27T02:05:40;98625.47;;;13.39;100.00
12799;BME280;19250;42.646;26.980;2023-02-27T02:08:09;98665.06;;;13.58;100.00
12799;BME280;19250;42.646;26.980;2023-02-27T02:10:37;98657.31;;;13.63;100.00
12799;BME280;19250;42.646;26.980;2023-02-27T02:13:06;98656.94;;;13.66;100.00
12799;BME280;19250;42.646;26.980;2023-02-27T02:15:38;98665.63;;;13.68;100.00
12799;BME280;19250;42.646;26.980;2023-02-27T02:18:17;98662.31;;;13.66;100.00
12799;BME280;19250;42.646;26.980;2023-02-27T02:21:27;98678.47;;;13.58;100.00
12799;BME280;19250;42.646;26.980;2023-02-27T02:24:34;98671.72;;;13.62;100.00
12799;BME280;19250;42.646;26.980;2023-02-27T02:27:15;98678.56;;;13.64;100.00
12799;BME280;19250;42.646;26.980;2023-02-27T02:30:16;98684.72;;;13.80;100.00
12799;BME280;19250;42.646;26.980;2023-02-27T02:36:38;98688.34;;;13.72;100.00
12799;BME280;19250;42.646;26.980;2023-02-27T02:39:33;98693.22;;;13.83;100.00
12799;BME280;19250;42.646;26.980;2023-02-27T02:42:11;98689.72;;;13.83;100.00
12799;BME280;19250;42.646;26.980;2023-02-27T02:44:50;98686.31;;;13.74;100.00
12799;BME280;19250;42.646;26.980;2023-02-27T02:47:29;98683.59;;;14.03;100.00
12799;BME280;19250;42.646;26.980;2023-02-27T02:50:08;98656.72;;;13.82;100.00
12799;BME280;19250;42.646;26.980;2023-02-27T02:52:43;98693.88;;;13.85;100.00
12799;BME280;19250;42.646;26.980;2023-02-27T02:55:20;98691.22;;;13.71;100.00
12799;BME280;19250;42.646;26.980;2023-02-27T02:57:54;98698.50;;;13.77;100.00
12799;BME280;19250;42.646;26.980;2023-02-27T03:00:26;98692.97;;;13.78;100.00
12799;BME280;19250;42.646;26.980;2023-02-27T03:02:58;98691.72;;;13.95;100.00
12799;BME280;19250;42.646;26.980;2023-02-27T03:05:31;98696.00;;;13.90;100.00
12799;BME280;19250;42.646;26.980;2023-02-27T03:08:03;98695.34;;;13.73;100.00
12799;BME280;19250;42.646;26.980;2023-02-27T03:10:35;98660.91;;;13.55;100.00
12799;BME280;19250;42.646;26.980;2023-02-27T03:13:08;98693.34;;;13.75;100.00
12799;BME280;19250;42.646;26.980;2023-02-27T03:15:42;98681.53;;;13.70;100.00
12799;BME280;19250;42.646;26.980;2023-02-27T03:18:15;98694.59;;;13.79;100.00
12799;BME280;19250;42.646;26.980;2023-02-27T03:20:50;98688.88;;;13.82;100.00
12799;BME280;19250;42.646;26.980;2023-02-27T03:23:22;98688.06;;;13.82;100.00
12799;BME280;19250;42.646;26.980;2023-02-27T03:25:52;98680.84;;;13.82;100.00
12799;BME280;19250;42.646;26.980;2023-02-27T03:28:24;98680.78;;;13.76;100.00
12799;BME280;19250;42.646;26.980;2023-02-27T03:30:56;98666.91;;;13.72;100.00
12799;BME280;19250;42.646;26.980;2023-02-27T03:33:29;98677.06;;;13.77;100.00
12799;BME280;19250;42.646;26.980;2023-02-27T03:36:05;98670.22;;;13.74;100.00
12799;BME280;19250;42.646;26.980;2023-02-27T03:38:38;98667.09;;;13.71;100.00
12799;BME280;19250;42.646;26.980;2023-02-27T03:41:13;98671.16;;;13.81;100.00
12799;BME280;19250;42.646;26.980;2023-02-27T03:43:46;98666.47;;;13.69;100.00
12799;BME280;19250;42.646;26.980;2023-02-27T03:46:17;98664.97;;;13.66;100.00
12799;BME280;19250;42.646;26.980;2023-02-27T03:48:47;98657.94;;;13.80;100.00
12799;BME280;19250;42.646;26.980;2023-02-27T03:51:16;98643.81;;;13.71;100.00
12799;BME280;19250;42.646;26.980;2023-02-27T03:53:48;98644.47;;;13.58;100.00
12799;BME280;19250;42.646;26.980;2023-02-27T03:56:22;98662.50;;;13.50;100.00
12799;BME280;19250;42.646;26.980;2023-02-27T03:58:51;98657.25;;;13.42;100.00
12799;BME280;19250;42.646;26.980;2023-02-27T04:01:19;98668.88;;;13.34;100.00
12799;BME280;19250;42.646;26.980;2023-02-27T04:03:52;98672.28;;;13.28;100.00
12799;BME280;19250;42.646;26.980;2023-02-27T04:06:23;98666.66;;;13.23;100.00
12799;BME280;19250;42.646;26.980;2023-02-27T04:09:18;98663.31;;;13.21;100.00
12799;BME280;19250;42.646;26.980;2023-02-27T04:11:59;98659.63;;;13.22;100.00
12799;BME280;19250;42.646;26.980;2023-02-27T04:14:41;98644.28;;;13.16;100.00
12799;BME280;19250;42.646;26.980;2023-02-27T04:17:21;98657.41;;;13.26;100.00
12799;BME280;19250;42.646;26.980;2023-02-27T04:20:16;98653.34;;;13.15;100.00
12799;BME280;19250;42.646;26.980;2023-02-27T04:22:51;98648.97;;;12.99;100.00
12799;BME280;19250;42.646;26.980;2023-02-27T04:25:35;98647.53;;;13.12;100.00
12799;BME280;19250;42.646;26.980;2023-02-27T04:28:13;98645.72;;;12.89;100.00
12799;BME280;19250;42.646;26.980;2023-02-27T04:30:47;98650.34;;;12.95;100.00
12799;BME280;19250;42.646;26.980;2023-02-27T04:33:24;98648.53;;;12.73;100.00
12799;BME280;19250;42.646;26.980;2023-02-27T04:35:59;98650.63;;;12.63;100.00
12799;BME280;19250;42.646;26.980;2023-02-27T04:38:34;98647.03;;;12.93;100.00
12799;BME280;19250;42.646;26.980;2023-02-27T04:41:07;98659.59;;;12.70;100.00
12799;BME280;19250;42.646;26.980;2023-02-27T04:43:39;98663.13;;;13.37;100.00
12799;BME280;19250;42.646;26.980;2023-02-27T04:46:10;98661.31;;;13.00;100.00
12799;BME280;19250;42.646;26.980;2023-02-27T04:48:44;98672.53;;;13.19;100.00
12799;BME280;19250;42.646;26.980;2023-02-27T04:51:17;98669.53;;;12.99;100.00
12799;BME280;19250;42.646;26.980;2023-02-27T04:53:49;98675.50;;;12.86;100.00
12799;BME280;19250;42.646;26.980;2023-02-27T04:56:22;98686.72;;;12.67;100.00
12799;BME280;19250;42.646;26.980;2023-02-27T04:58:53;98704.91;;;12.72;100.00
12799;BME280;19250;42.646;26.980;2023-02-27T05:01:25;98704.31;;;12.62;100.00
12799;BME280;19250;42.646;26.980;2023-02-27T05:03:56;98707.88;;;12.77;100.00
12799;BME280;19250;42.646;26.980;2023-02-27T05:06:28;98680.59;;;12.59;100.00
12799;BME280;19250;42.646;26.980;2023-02-27T05:08:58;98703.59;;;12.68;100.00
12799;BME280;19250;42.646;26.980;2023-02-27T05:11:32;98715.88;;;12.54;100.00
12799;BME280;19250;42.646;26.980;2023-02-27T05:14:10;98712.75;;;12.50;100.00
12799;BME280;19250;42.646;26.980;2023-02-27T05:16:42;98721.44;;;12.52;100.00
12799;BME280;19250;42.646;26.980;2023-02-27T05:19:12;98720.81;;;12.42;100.00
12799;BME280;19250;42.646;26.980;2023-02-27T05:21:43;98722.63;;;12.50;100.00
12799;BME280;19250;42.646;26.980;2023-02-27T05:24:20;98725.59;;;12.55;100.00
12799;BME280;19250;42.646;26.980;2023-02-27T05:27:09;98721.59;;;12.51;100.00
12799;BME280;19250;42.646;26.980;2023-02-27T05:29:45;98694.81;;;12.59;100.00
12799;BME280;19250;42.646;26.980;2023-02-27T05:32:20;98728.19;;;12.63;100.00
12799;BME280;19250;42.646;26.980;2023-02-27T05:34:51;98731.78;;;12.55;100.00
12799;BME280;19250;42.646;26.980;2023-02-27T05:37:26;98744.94;;;12.57;100.00
12799;BME280;19250;42.646;26.980;2023-02-27T05:39:56;98755.41;;;12.67;100.00
12799;BME280;19250;42.646;26.980;2023-02-27T05:42:27;98757.38;;;12.73;100.00
12799;BME280;19250;42.646;26.980;2023-02-27T05:45:02;98762.56;;;12.74;100.00
12799;BME280;19250;42.646;26.980;2023-02-27T05:47:36;98769.81;;;12.88;100.00
12799;BME280;19250;42.646;26.980;2023-02-27T05:50:08;98768.63;;;12.91;100.00
12799;BME280;19250;42.646;26.980;2023-02-27T05:52:38;98772.00;;;12.85;100.00
12799;BME280;19250;42.646;26.980;2023-02-27T05:55:11;98775.34;;;12.87;100.00
12799;BME280;19250;42.646;26.980;2023-02-27T05:57:45;98760.19;;;12.79;100.00
12799;BME280;19250;42.646;26.980;2023-02-27T06:00:19;98792.81;;;12.97;100.00
12799;BME280;19250;42.646;26.980;2023-02-27T06:02:47;98794.09;;;13.09;100.00
12799;BME280;19250;42.646;26.980;2023-02-27T06:05:16;98798.38;;;13.19;100.00
12799;BME280;19250;42.646;26.980;2023-02-27T06:07:44;98800.63;;;13.30;100.00
12799;BME280;19250;42.646;26.980;2023-02-27T06:10:13;98803.81;;;13.48;100.00
12799;BME280;19250;42.646;26.980;2023-02-27T06:12:41;98821.53;;;13.49;100.00
12799;BME280;19250;42.646;26.980;2023-02-27T06:15:08;98805.78;;;13.69;100.00
12799;BME280;19250;42.646;26.980;2023-02-27T06:17:37;98810.56;;;13.73;100.00
12799;BME280;19250;42.646;26.980;2023-02-27T06:20:06;98800.25;;;13.85;100.00
12799;BME280;19250;42.646;26.980;2023-02-27T06:22:34;98812.91;;;14.05;100.00
12799;BME280;19250;42.646;26.980;2023-02-27T06:25:01;98820.41;;;14.25;100.00
12799;BME280;19250;42.646;26.980;2023-02-27T06:27:29;98809.22;;;14.36;100.00
12799;BME280;19250;42.646;26.980;2023-02-27T06:29:56;98813.44;;;14.59;100.00
12799;BME280;19250;42.646;26.980;2023-02-27T06:32:23;98818.38;;;14.77;100.00
12799;BME280;19250;42.646;26.980;2023-02-27T06:34:52;98825.19;;;14.94;100.00
12799;BME280;19250;42.646;26.980;2023-02-27T06:37:20;98817.06;;;14.88;100.00
12799;BME280;19250;42.646;26.980;2023-02-27T06:39:47;98825.56;;;15.12;100.00
12799;BME280;19250;42.646;26.980;2023-02-27T06:42:15;98823.59;;;15.00;100.00
12799;BME280;19250;42.646;26.980;2023-02-27T06:44:43;98831.56;;;15.36;100.00
12799;BME280;19250;42.646;26.980;2023-02-27T06:47:10;98820.19;;;15.34;100.00
12799;BME280;19250;42.646;26.980;2023-02-27T06:49:37;98831.97;;;15.54;100.00
12799;BME280;19250;42.646;26.980;2023-02-27T06:52:06;98808.91;;;15.45;100.00
12799;BME280;19250;42.646;26.980;2023-02-27T06:54:33;98832.56;;;15.77;100.00
12799;BME280;19250;42.646;26.980;2023-02-27T06:57:01;98834.56;;;15.96;100.00
12799;BME280;19250;42.646;26.980;2023-02-27T06:59:28;98827.19;;;15.77;100.00
12799;BME280;19250;42.646;26.980;2023-02-27T07:01:55;98841.66;;;15.76;100.00
12799;BME280;19250;42.646;26.980;2023-02-27T07:04:24;98827.53;;;15.95;100.00
12799;BME280;19250;42.646;26.980;2023-02-27T07:06:51;98852.25;;;15.84;100.00
12799;BME280;19250;42.646;26.980;2023-02-27T07:09:20;98850.16;;;16.07;100.00
12799;BME280;19250;42.646;26.980;2023-02-27T07:11:48;98847.16;;;16.23;100.00
12799;BME280;19250;42.646;26.980;2023-02-27T07:14:16;98858.31;;;16.55;100.00
12799;BME280;19250;42.646;26.980;2023-02-27T07:16:43;98858.34;;;16.61;100.00
12799;BME280;19250;42.646;26.980;2023-02-27T07:19:11;98868.50;;;16.59;100.00
12799;BME280;19250;42.646;26.980;2023-02-27T07:21:39;98867.03;;;16.57;100.00
12799;BME280;19250;42.646;26.980;2023-02-27T07:24:06;98873.72;;;16.74;100.00
12799;BME280;19250;42.646;26.980;2023-02-27T07:26:36;98878.25;;;16.67;100.00
12799;BME280;19250;42.646;26.980;2023-02-27T07:29:03;98887.50;;;16.58;100.00
12799;BME280;19250;42.646;26.980;2023-02-27T07:31:31;98894.25;;;16.41;100.00
12799;BME280;19250;42.646;26.980;2023-02-27T07:33:58;98885.34;;;16.74;100.00
12799;BME280;19250;42.646;26.980;2023-02-27T07:36:26;98878.56;;;16.98;100.00
12799;BME280;19250;42.646;26.980;2023-02-27T07:38:54;98880.88;;;17.08;100.00
12799;BME280;19250;42.646;26.980;2023-02-27T07:41:22;98870.69;;;16.90;100.00
12799;BME280;19250;42.646;26.980;2023-02-27T07:43:51;98884.19;;;17.03;100.00
12799;BME280;19250;42.646;26.980;2023-02-27T07:46:18;98887.75;;;17.17;98.53
12799;BME280;19250;42.646;26.980;2023-02-27T07:48:48;98882.06;;;16.85;100.00
12799;BME280;19250;42.646;26.980;2023-02-27T07:51:15;98890.38;;;16.97;99.95
12799;BME280;19250;42.646;26.980;2023-02-27T07:53:43;98867.06;;;16.70;100.00
12799;BME280;19250;42.646;26.980;2023-02-27T07:56:10;98893.28;;;16.96;100.00
12799;BME280;19250;42.646;26.980;2023-02-27T07:58:37;98879.75;;;16.82;100.00
12799;BME280;19250;42.646;26.980;2023-02-27T08:01:06;98898.25;;;16.92;100.00
12799;BME280;19250;42.646;26.980;2023-02-27T08:03:33;98880.88;;;17.01;100.00
12799;BME280;19250;42.646;26.980;2023-02-27T08:06:01;98892.53;;;17.15;99.54
12799;BME280;19250;42.646;26.980;2023-02-27T08:08:28;98888.19;;;17.20;100.00
12799;BME280;19250;42.646;26.980;2023-02-27T08:10:55;98894.72;;;17.78;97.08
12799;BME280;19250;42.646;26.980;2023-02-27T08:13:23;98891.81;;;17.67;96.35
12799;BME280;19250;42.646;26.980;2023-02-27T08:15:50;98896.59;;;17.91;95.12
12799;BME280;19250;42.646;26.980;2023-02-27T08:18:20;98880.81;;;17.94;93.61
12799;BME280;19250;42.646;26.980;2023-02-27T08:20:48;98906.13;;;17.80;92.52
12799;BME280;19250;42.646;26.980;2023-02-27T08:23:15;98906.75;;;17.89;92.78
12799;BME280;19250;42.646;26.980;2023-02-27T08:25:42;98893.88;;;17.71;93.62
12799;BME280;19250;42.646;26.980;2023-02-27T08:28:09;98909.44;;;17.95;91.63
12799;BME280;19250;42.646;26.980;2023-02-27T08:30:37;98912.34;;;18.07;91.02
12799;BME280;19250;42.646;26.980;2023-02-27T08:33:04;98919.19;;;17.77;91.61
12799;BME280;19250;42.646;26.980;2023-02-27T08:35:33;98911.31;;;17.82;90.50
12799;BME280;19250;42.646;26.980;2023-02-27T08:38:00;98922.53;;;17.85;91.13
12799;BME280;19250;42.646;26.980;2023-02-27T08:40:28;98919.00;;;17.78;90.25
12799;BME280;19250;42.646;26.980;2023-02-27T08:42:55;98931.66;;;17.84;88.88
12799;BME280;19250;42.646;26.980;2023-02-27T08:45:22;98924.19;;;17.93;87.21
12799;BME280;19250;42.646;26.980;2023-02-27T08:47:49;98926.25;;;18.17;89.65
12799;BME280;19250;42.646;26.980;2023-02-27T08:50:17;98928.53;;;18.33;86.71
12799;BME280;19250;42.646;26.980;2023-02-27T08:52:45;98926.63;;;18.60;86.58
12799;BME280;19250;42.646;26.980;2023-02-27T08:55:14;98933.28;;;18.58;81.91
12799;BME280;19250;42.646;26.980;2023-02-27T08:57:41;98947.19;;;18.35;84.42
12799;BME280;19250;42.646;26.980;2023-02-27T09:00:26;98942.44;;;18.30;84.09
12799;BME280;19250;42.646;26.980;2023-02-27T09:02:53;98944.50;;;18.41;79.26
12799;BME280;19250;42.646;26.980;2023-02-27T09:05:21;98961.53;;;18.68;77.82
12799;BME280;19250;42.646;26.980;2023-02-27T09:07:50;98970.25;;;18.64;75.09
12799;BME280;19250;42.646;26.980;2023-02-27T09:10:17;98970.84;;;18.79;73.59
12799;BME280;19250;42.646;26.980;2023-02-27T09:12:44;98976.56;;;19.02;70.90
12799;BME280;19250;42.646;26.980;2023-02-27T09:15:13;98994.31;;;18.85;74.70
12799;BME280;19250;42.646;26.980;2023-02-27T09:17:41;98985.44;;;18.65;73.44
12799;BME280;19250;42.646;26.980;2023-02-27T09:20:09;98953.66;;;18.34;68.38
12799;BME280;19250;42.646;26.980;2023-02-27T09:22:37;99001.81;;;18.70;64.63
12799;BME280;19250;42.646;26.980;2023-02-27T09:25:06;98986.28;;;19.29;62.86
12799;BME280;19250;42.646;26.980;2023-02-27T09:27:34;98962.38;;;19.64;56.64
12799;BME280;19250;42.646;26.980;2023-02-27T09:30:02;98997.66;;;19.38;57.28
12799;BME280;19250;42.646;26.980;2023-02-27T09:32:29;99002.66;;;19.34;59.09
12799;BME280;19250;42.646;26.980;2023-02-27T09:34:57;98992.56;;;19.61;58.36
12799;BME280;19250;42.646;26.980;2023-02-27T09:37:25;99009.97;;;19.40;58.87
12799;BME280;19250;42.646;26.980;2023-02-27T09:39:52;99016.69;;;19.05;60.40
12799;BME280;19250;42.646;26.980;2023-02-27T09:42:23;99016.25;;;19.08;60.30
12799;BME280;19250;42.646;26.980;2023-02-27T09:44:53;99011.66;;;19.22;61.86
12799;BME280;19250;42.646;26.980;2023-02-27T09:47:24;99013.25;;;19.36;60.39
12799;BME280;19250;42.646;26.980;2023-02-27T09:49:57;99007.56;;;19.06;63.11
12799;BME280;19250;42.646;26.980;2023-02-27T09:52:26;99014.00;;;19.63;60.73
12799;BME280;19250;42.646;26.980;2023-02-27T09:54:54;99014.81;;;20.82;54.97
12799;BME280;19250;42.646;26.980;2023-02-27T09:57:31;99031.19;;;20.69;55.63
12799;BME280;19250;42.646;26.980;2023-02-27T10:00:06;99023.19;;;20.74;53.90
12799;BME280;19250;42.646;26.980;2023-02-27T10:02:51;99021.00;;;20.64;55.42
12799;BME280;19250;42.646;26.980;2023-02-27T10:05:29;99029.91;;;20.71;54.87
12799;BME280;19250;42.646;26.980;2023-02-27T10:08:08;99013.16;;;20.99;53.02
12799;BME280;19250;42.646;26.980;2023-02-27T10:10:44;99028.22;;;20.27;56.77
12799;BME280;19250;42.646;26.980;2023-02-27T10:13:35;99024.34;;;20.41;56.76
12799;BME280;19250;42.646;26.980;2023-02-27T10:16:07;99035.81;;;20.61;54.99
12799;BME280;19250;42.646;26.980;2023-02-27T10:18:43;99044.66;;;19.88;59.00
12799;BME280;19250;42.646;26.980;2023-02-27T10:21:16;99031.97;;;20.20;57.77
12799;BME280;19250;42.646;26.980;2023-02-27T10:23:51;99028.78;;;19.98;58.89
12799;BME280;19250;42.646;26.980;2023-02-27T10:26:20;99039.31;;;19.81;59.52
12799;BME280;19250;42.646;26.980;2023-02-27T10:28:50;99041.34;;;19.86;59.40
12799;BME280;19250;42.646;26.980;2023-02-27T10:31:21;99029.28;;;19.82;59.50
12799;BME280;19250;42.646;26.980;2023-02-27T10:33:49;99024.31;;;19.79;60.11
12799;BME280;19250;42.646;26.980;2023-02-27T10:36:18;99032.41;;;19.85;59.80
12799;BME280;19250;42.646;26.980;2023-02-27T10:38:49;99007.38;;;19.59;59.99
12799;BME280;19250;42.646;26.980;2023-02-27T10:41:19;99031.59;;;19.34;62.00
12799;BME280;19250;42.646;26.980;2023-02-27T10:43:47;99025.16;;;19.28;62.88
12799;BME280;19250;42.646;26.980;2023-02-27T10:46:24;99026.16;;;19.47;62.49
12799;BME280;19250;42.646;26.980;2023-02-27T10:48:52;99014.56;;;19.78;60.74
12799;BME280;19250;42.646;26.980;2023-02-27T10:51:22;99010.78;;;20.10;59.50
12799;BME280;19250;42.646;26.980;2023-02-27T10:53:50;99015.75;;;20.13;60.29
12799;BME280;19250;42.646;26.980;2023-02-27T10:56:23;99014.00;;;20.25;57.99
12799;BME280;19250;42.646;26.980;2023-02-27T10:59:02;99020.25;;;20.57;56.79
12799;BME280;19250;42.646;26.980;2023-02-27T11:01:42;99011.00;;;20.83;54.66
12799;BME280;19250;42.646;26.980;2023-02-27T11:04:10;98997.19;;;20.91;54.62
12799;BME280;19250;42.646;26.980;2023-02-27T11:06:39;99016.47;;;21.55;50.20
12799;BME280;19250;42.646;26.980;2023-02-27T11:09:10;99006.78;;;21.11;53.39
12799;BME280;19250;42.646;26.980;2023-02-27T11:11:38;99006.84;;;21.41;51.92
12799;BME280;19250;42.646;26.980;2023-02-27T11:14:28;98988.38;;;21.80;50.52
12799;BME280;19250;42.646;26.980;2023-02-27T11:16:59;98996.94;;;21.47;51.90
12799;BME280;19250;42.646;26.980;2023-02-27T11:19:32;99007.00;;;22.06;49.63
12799;BME280;19250;42.646;26.980;2023-02-27T11:22:01;99000.19;;;21.85;49.85
12799;BME280;19250;42.646;26.980;2023-02-27T11:24:29;99000.31;;;21.31;52.10
12799;BME280;19250;42.646;26.980;2023-02-27T11:26:58;98993.69;;;21.08;53.60
12799;BME280;19250;42.646;26.980;2023-02-27T11:29:28;99001.06;;;20.77;55.97
12799;BME280;19250;42.646;26.980;2023-02-27T11:31:59;98996.53;;;20.71;56.78
12799;BME280;19250;42.646;26.980;2023-02-27T11:34:30;98990.78;;;21.03;55.18
12799;BME280;19250;42.646;26.980;2023-02-27T11:37:03;98985.00;;;21.00;54.22
12799;BME280;19250;42.646;26.980;2023-02-27T11:39:36;98976.94;;;21.11;54.38
12799;BME280;19250;42.646;26.980;2023-02-27T11:42:16;98996.56;;;21.07;54.69
12799;BME280;19250;42.646;26.980;2023-02-27T11:44:51;98991.78;;;20.48;61.81
12799;BME280;19250;42.646;26.980;2023-02-27T11:47:24;98989.72;;;19.87;69.03
12799;BME280;19250;42.646;26.980;2023-02-27T11:50:08;99007.56;;;19.57;72.26
12799;BME280;19250;42.646;26.980;2023-02-27T11:52:47;98998.56;;;19.70;72.30
12799;BME280;19250;42.646;26.980;2023-02-27T11:55:18;99010.41;;;19.75;70.79
12799;BME280;19250;42.646;26.980;2023-02-27T11:57:51;99015.59;;;19.77;70.27
12799;BME280;19250;42.646;26.980;2023-02-27T12:00:23;99000.41;;;20.07;68.32
12799;BME280;19250;42.646;26.980;2023-02-27T12:02:57;99003.06;;;20.14;68.32
12799;BME280;19250;42.646;26.980;2023-02-27T12:05:28;99012.78;;;19.59;73.84
12799;BME280;19250;42.646;26.980;2023-02-27T12:07:59;99017.44;;;19.83;75.06
12799;BME280;19250;42.646;26.980;2023-02-27T12:10:33;99027.78;;;19.54;83.68
12799;BME280;19250;42.646;26.980;2023-02-27T12:13:09;99027.69;;;17.66;100.00
12799;BME280;19250;42.646;26.980;2023-02-27T12:15:43;99018.25;;;16.67;100.00
12799;BME280;19250;42.646;26.980;2023-02-27T12:18:15;99011.94;;;16.81;100.00
12799;BME280;19250;42.646;26.980;2023-02-27T12:20:50;99012.63;;;16.96;100.00
12799;BME280;19250;42.646;26.980;2023-02-27T12:23:25;99008.94;;;17.04;100.00
12799;BME280;19250;42.646;26.980;2023-02-27T12:25:59;99014.81;;;17.14;100.00
12799;BME280;19250;42.646;26.980;2023-02-27T12:28:42;98998.25;;;16.82;100.00
12799;BME280;19250;42.646;26.980;2023-02-27T12:31:38;99001.88;;;16.96;100.00
12799;BME280;19250;42.646;26.980;2023-02-27T12:34:18;98992.00;;;17.16;100.00
12799;BME280;19250;42.646;26.980;2023-02-27T12:36:46;98996.63;;;17.29;100.00
12799;BME280;19250;42.646;26.980;2023-02-27T12:39:17;99000.09;;;17.77;100.00
12799;BME280;19250;42.646;26.980;2023-02-27T12:44:53;99006.81;;;18.46;96.11
12799;BME280;19250;42.646;26.980;2023-02-27T12:47:28;99012.41;;;18.12;95.20
12799;BME280;19250;42.646;26.980;2023-02-27T12:50:02;99008.00;;;17.72;100.00
12799;BME280;19250;42.646;26.980;2023-02-27T12:52:39;98992.47;;;18.20;95.47
12799;BME280;19250;42.646;26.980;2023-02-27T12:55:14;98993.94;;;18.35;95.39
12799;BME280;19250;42.646;26.980;2023-02-27T13:00:45;99005.16;;;18.06;98.16
12799;BME280;19250;42.646;26.980;2023-02-27T13:03:17;99000.16;;;18.29;97.20
12799;BME280;19250;42.646;26.980;2023-02-27T13:05:53;98993.13;;;18.55;96.49
12799;BME280;19250;42.646;26.980;2023-02-27T13:08:41;98993.13;;;19.25;88.41
12799;BME280;19250;42.646;26.980;2023-02-27T13:11:19;99001.34;;;19.57;86.59
12799;BME280;19250;42.646;26.980;2023-02-27T13:13:54;98996.16;;;20.18;82.65
12799;BME280;19250;42.646;26.980;2023-02-27T13:16:29;99002.72;;;20.59;80.89